createdAt,value
2018-07-17T00:01:39.093Z,12.40
2018-07-17T00:05:10.581Z,12.40
2018-07-17T00:07:38.536Z,12.40
2018-07-17T00:10:07.192Z,12.40
2018-07-17T00:12:35.418Z,12.40
2018-07-17T00:15:20.205Z,12.40
2018-07-17T00:23:06.280Z,12.30
2018-07-17T00:25:33.967Z,12.30
2018-07-17T00:28:01.732Z,12.30
2018-07-17T00:30:29.587Z,12.20
2018-07-17T00:32:57.258Z,12.20
2018-07-17T00:35:24.841Z,12.10
2018-07-17T00:37:52.326Z,12.00
2018-07-17T00:40:19.886Z,11.90
2018-07-17T00:42:47.738Z,11.90
2018-07-17T00:45:15.461Z,11.90
2018-07-17T00:47:43.118Z,11.80
2018-07-17T00:50:10.758Z,11.80
2018-07-17T00:52:38.471Z,11.80
2018-07-17T00:55:06.347Z,11.80
2018-07-17T00:57:33.902Z,11.80
2018-07-17T01:00:01.708Z,11.80
2018-07-17T01:02:35.041Z,11.70
2018-07-17T01:05:08.271Z,11.70
2018-07-17T01:07:41.903Z,11.60
2018-07-17T01:10:15.432Z,11.60
2018-07-17T01:15:15.572Z,11.60
2018-07-17T01:17:43.239Z,11.60
2018-07-17T01:20:10.742Z,11.60
2018-07-17T01:22:38.594Z,11.60
2018-07-17T01:25:06.157Z,11.50
2018-07-17T01:27:33.943Z,11.50
2018-07-17T01:30:01.723Z,11.50
2018-07-17T01:32:29.368Z,11.50
2018-07-17T01:34:56.903Z,11.40
2018-07-17T01:37:24.512Z,11.40
2018-07-17T01:42:19.802Z,11.30
2018-07-17T01:44:48.212Z,11.30
2018-07-17T01:49:43.964Z,11.30
2018-07-17T01:52:11.780Z,11.30
2018-07-17T01:54:39.550Z,11.30
2018-07-17T01:57:07.248Z,11.30
2018-07-17T01:59:34.928Z,11.30
2018-07-17T02:02:02.656Z,11.30
2018-07-17T02:06:58.049Z,11.30
2018-07-17T02:09:25.844Z,11.30
2018-07-17T02:14:21.601Z,11.20
2018-07-17T02:16:49.662Z,11.30
2018-07-17T02:19:17.225Z,11.20
2018-07-17T02:21:44.954Z,11.20
2018-07-17T02:24:12.714Z,11.10
2018-07-17T02:26:40.347Z,11.10
2018-07-17T02:29:08.332Z,11.10
2018-07-17T02:31:37.090Z,11.00
2018-07-17T02:34:04.713Z,11.00
2018-07-17T02:39:00.078Z,10.90
2018-07-17T02:41:28.026Z,10.90
2018-07-17T02:43:55.934Z,10.90
2018-07-17T02:46:23.681Z,10.90
2018-07-17T02:48:51.356Z,10.80
2018-07-17T02:51:19.239Z,10.80
2018-07-17T02:53:47.203Z,10.80
2018-07-17T02:56:14.724Z,10.80
2018-07-17T02:58:42.598Z,10.80
2018-07-17T03:01:10.457Z,10.70
2018-07-17T03:03:38.525Z,10.70
2018-07-17T03:06:06.213Z,10.70
2018-07-17T03:08:33.972Z,10.70
2018-07-17T03:11:01.995Z,10.60
2018-07-17T03:13:29.940Z,10.60
2018-07-17T03:18:25.260Z,10.60
2018-07-17T03:20:53.093Z,10.60
2018-07-17T03:23:20.700Z,10.60
2018-07-17T03:25:48.420Z,10.60
2018-07-17T03:28:16.188Z,10.50
2018-07-17T03:30:43.849Z,10.50
2018-07-17T03:33:11.717Z,10.60
2018-07-17T03:35:39.391Z,10.50
2018-07-17T03:38:07.329Z,10.60
2018-07-17T03:40:35.006Z,10.60
2018-07-17T03:43:02.676Z,10.60
2018-07-17T03:45:30.309Z,10.60
2018-07-17T03:47:58.035Z,10.50
2018-07-17T03:50:25.887Z,10.60
2018-07-17T03:55:22.538Z,10.60
2018-07-17T04:00:18.023Z,10.60
2018-07-17T04:02:45.712Z,10.60
2018-07-17T04:07:41.886Z,10.60
2018-07-17T04:10:10.029Z,10.60
2018-07-17T04:12:38.304Z,10.60
2018-07-17T04:15:06.255Z,10.60
2018-07-17T04:17:33.776Z,10.70
2018-07-17T04:20:01.485Z,10.80
2018-07-17T04:22:29.786Z,10.80
2018-07-17T04:24:57.548Z,10.90
2018-07-17T04:27:25.287Z,11.00
2018-07-17T04:29:53.494Z,11.00
2018-07-17T04:32:21.466Z,11.00
2018-07-17T04:34:49.267Z,11.10
2018-07-17T04:37:17.026Z,11.10
2018-07-17T04:39:44.999Z,11.10
2018-07-17T04:42:12.928Z,11.20
2018-07-17T04:44:40.796Z,11.20
2018-07-17T04:47:08.706Z,11.30
2018-07-17T04:49:36.540Z,11.30
2018-07-17T04:52:04.272Z,11.40
2018-07-17T04:54:32.079Z,11.50
2018-07-17T04:57:00.327Z,11.60
2018-07-17T04:59:28.562Z,11.60
2018-07-17T05:04:24.777Z,11.80
2018-07-17T05:06:53.056Z,12.00
2018-07-17T05:09:20.771Z,12.10
2018-07-17T05:11:48.328Z,12.30
2018-07-17T05:14:16.037Z,12.50
2018-07-17T05:16:43.519Z,12.70
2018-07-17T05:19:11.485Z,12.90
2018-07-17T05:21:39.543Z,13.00
2018-07-17T05:24:07.374Z,13.20
2018-07-17T05:26:36.005Z,13.50
2018-07-17T05:29:05.194Z,13.70
2018-07-17T05:31:33.345Z,14.00
2018-07-17T05:34:01.013Z,14.30
2018-07-17T05:36:28.769Z,14.50
2018-07-17T05:38:56.425Z,14.80
2018-07-17T05:41:24.285Z,15.00
2018-07-17T05:43:52.165Z,15.30
2018-07-17T05:46:20.240Z,15.40
2018-07-17T05:48:49.485Z,15.50
2018-07-17T05:51:17.547Z,15.70
2018-07-17T05:53:45.520Z,16.00
2018-07-17T05:56:13.180Z,16.30
2018-07-17T05:58:40.817Z,16.90
2018-07-17T06:01:14.028Z,17.80
2018-07-17T06:03:42.039Z,18.60
2018-07-17T06:06:09.814Z,19.40
2018-07-17T06:08:37.495Z,20.10
2018-07-17T06:11:06.114Z,20.70
2018-07-17T06:13:33.935Z,21.00
2018-07-17T06:18:29.589Z,21.20
2018-07-17T06:20:57.345Z,21.60
2018-07-17T06:23:26.270Z,22.20
2018-07-17T06:25:54.422Z,22.60
2018-07-17T06:28:22.529Z,23.10
2018-07-17T06:30:50.446Z,23.70
2018-07-17T06:33:18.452Z,24.30
2018-07-17T06:35:46.873Z,24.90
2018-07-17T06:38:15.441Z,25.30
2018-07-17T06:40:43.739Z,25.80
2018-07-17T06:43:11.924Z,26.10
2018-07-17T06:45:39.908Z,26.40
2018-07-17T06:48:08.054Z,26.40
2018-07-17T06:56:16.614Z,27.00
2018-07-17T06:58:44.390Z,27.30
2018-07-17T07:01:12.610Z,27.20
2018-07-17T07:03:40.322Z,27.20
2018-07-17T07:06:08.159Z,27.40
2018-07-17T07:08:36.245Z,27.70
2018-07-17T07:11:05.067Z,27.70
2018-07-17T07:13:33.497Z,27.90
2018-07-17T07:16:02.337Z,27.90
2018-07-17T07:18:30.281Z,27.60
2018-07-17T07:20:58.499Z,27.40
2018-07-17T07:23:26.183Z,27.20
2018-07-17T07:25:54.264Z,27.00
2018-07-17T07:28:22.429Z,27.10
2018-07-17T07:30:50.331Z,27.10
2018-07-17T07:33:18.516Z,27.10
2018-07-17T07:35:46.299Z,27.00
2018-07-17T07:38:14.300Z,27.10
2018-07-17T07:40:42.077Z,27.10
2018-07-17T07:43:10.617Z,27.10
2018-07-17T07:45:38.130Z,27.20
2018-07-17T07:48:07.152Z,27.60
2018-07-17T07:50:35.738Z,27.80
2018-07-17T07:53:03.809Z,27.90
2018-07-17T07:55:31.743Z,27.90
2018-07-17T07:57:59.797Z,28.10
2018-07-17T08:00:27.626Z,28.20
2018-07-17T08:02:55.436Z,28.20
2018-07-17T08:05:23.711Z,28.10
2018-07-17T08:07:51.347Z,28.00
2018-07-17T08:10:19.406Z,27.80
2018-07-17T08:12:47.499Z,27.60
2018-07-17T08:15:15.627Z,27.20
2018-07-17T08:17:43.831Z,27.30
2018-07-17T08:20:12.235Z,27.40
2018-07-17T08:22:40.282Z,27.60
2018-07-17T08:25:08.186Z,27.70
2018-07-17T08:27:36.445Z,27.80
2018-07-17T08:30:05.024Z,28.00
2018-07-17T08:32:33.121Z,28.10
2018-07-17T08:35:01.873Z,27.90
2018-07-17T08:37:29.813Z,27.90
2018-07-17T08:39:58.404Z,27.90
2018-07-17T08:42:27.079Z,27.80
2018-07-17T08:44:55.652Z,27.60
2018-07-17T08:47:23.971Z,27.70
2018-07-17T08:49:52.235Z,27.80
2018-07-17T08:52:20.239Z,28.10
2018-07-17T08:54:49.799Z,28.20
2018-07-17T08:57:17.979Z,28.40
2018-07-17T08:59:46.157Z,28.60
2018-07-17T09:02:14.577Z,28.80
2018-07-17T09:04:43.671Z,28.90
2018-07-17T09:07:11.760Z,29.20
2018-07-17T09:12:07.627Z,29.10
2018-07-17T09:14:35.616Z,28.70
2018-07-17T09:17:04.849Z,28.20
2018-07-17T09:19:36.813Z,28.10
2018-07-17T09:27:00.477Z,28.10
2018-07-17T09:29:28.520Z,28.00
2018-07-17T09:31:56.754Z,28.20
2018-07-17T09:34:25.583Z,28.60
2018-07-17T09:36:54.445Z,28.90
2018-07-17T09:39:23.203Z,29.40
2018-07-17T09:41:51.572Z,29.60
2018-07-17T09:44:19.604Z,29.80
2018-07-17T09:46:47.566Z,30.00
2018-07-17T09:49:15.660Z,29.90
2018-07-17T09:51:44.061Z,29.50
2018-07-17T09:54:12.118Z,29.50
2018-07-17T09:56:40.095Z,29.50
2018-07-17T09:59:08.746Z,29.40
2018-07-17T10:01:43.093Z,29.30
2018-07-17T10:04:11.492Z,29.30
2018-07-17T10:06:39.535Z,29.10
2018-07-17T10:09:08.047Z,28.80
2018-07-17T10:11:37.350Z,28.70
2018-07-17T10:14:05.945Z,28.60
2018-07-17T10:16:35.448Z,28.40
2018-07-17T10:19:03.835Z,28.40
2018-07-17T10:21:32.940Z,28.40
2018-07-17T10:24:02.544Z,28.60
2018-07-17T10:26:30.976Z,29.00
2018-07-17T10:28:59.208Z,29.30
2018-07-17T10:31:27.373Z,29.50
2018-07-17T10:33:55.445Z,29.60
2018-07-17T10:36:23.766Z,29.90
2018-07-17T10:38:51.785Z,30.10
2018-07-17T10:41:19.823Z,30.10
2018-07-17T10:43:48.688Z,29.80
2018-07-17T10:46:19.279Z,29.40
2018-07-17T10:48:47.494Z,29.40
2018-07-17T10:51:15.554Z,29.50
2018-07-17T10:53:43.419Z,29.60
2018-07-17T10:56:11.613Z,29.80
2018-07-17T10:58:39.934Z,30.00
2018-07-17T11:03:35.663Z,30.00
2018-07-17T11:06:03.606Z,29.90
2018-07-17T11:08:32.084Z,29.60
2018-07-17T11:11:00.166Z,29.30
2018-07-17T11:13:28.252Z,29.10
2018-07-17T11:15:56.429Z,28.70
2018-07-17T11:18:24.514Z,28.10
2018-07-17T11:20:52.375Z,28.00
2018-07-17T11:23:20.413Z,28.10
2018-07-17T11:25:48.376Z,28.30
2018-07-17T11:28:16.450Z,28.60
2018-07-17T11:30:44.377Z,29.10
2018-07-17T11:33:12.341Z,29.30
2018-07-17T11:35:40.229Z,29.50
2018-07-17T11:38:09.135Z,29.50
2018-07-17T11:40:37.197Z,29.60
2018-07-17T11:43:05.419Z,29.80
2018-07-17T11:45:34.172Z,29.90
2018-07-17T11:48:02.700Z,29.60
2018-07-17T11:50:33.415Z,29.50
2018-07-17T11:53:01.224Z,29.60
2018-07-17T11:55:29.181Z,29.80
2018-07-17T11:57:57.103Z,29.90
2018-07-17T12:00:25.789Z,30.00
2018-07-17T12:02:57.315Z,30.00
2018-07-17T12:05:26.616Z,29.80
2018-07-17T12:07:56.658Z,29.80
2018-07-17T12:10:30.515Z,30.00
2018-07-17T12:13:01.876Z,30.10
2018-07-17T12:15:31.300Z,29.80
2018-07-17T12:18:02.510Z,29.90
2018-07-17T12:20:35.224Z,29.80
2018-07-17T12:23:04.273Z,29.50
2018-07-17T12:25:32.908Z,29.20
2018-07-17T12:28:06.949Z,29.10
2018-07-17T12:30:37.317Z,29.00
2018-07-17T12:33:06.632Z,29.00
2018-07-17T12:35:35.536Z,28.60
2018-07-17T12:38:03.977Z,28.70
2018-07-17T12:40:33.072Z,28.80
2018-07-17T12:43:01.513Z,28.70
2018-07-17T12:51:04.285Z,28.10
2018-07-17T12:53:32.045Z,28.20
2018-07-17T12:56:03.995Z,28.10
2018-07-17T12:58:34.202Z,28.10
2018-07-17T13:01:03.609Z,28.20
2018-07-17T13:06:01.057Z,28.50
2018-07-17T13:08:28.995Z,28.70
2018-07-17T13:10:57.050Z,28.80
2018-07-17T13:13:24.969Z,28.90
2018-07-17T13:15:53.393Z,29.00
2018-07-17T13:18:21.328Z,29.10
2018-07-17T13:20:49.342Z,29.10
2018-07-17T13:23:17.426Z,29.00
2018-07-17T13:25:45.289Z,28.80
2018-07-17T13:28:13.224Z,28.70
2018-07-17T13:30:41.177Z,28.60
2018-07-17T13:33:09.041Z,28.60
2018-07-17T13:35:36.980Z,28.60
2018-07-17T13:38:04.883Z,28.60
2018-07-17T13:40:32.919Z,28.60
2018-07-17T13:43:01.302Z,28.50
2018-07-17T13:45:29.426Z,28.60
2018-07-17T13:47:57.218Z,28.70
2018-07-17T13:50:25.056Z,28.70
2018-07-17T13:52:52.904Z,28.70
2018-07-17T13:55:20.947Z,28.70
2018-07-17T13:57:48.830Z,28.80
2018-07-17T14:00:16.756Z,28.90
2018-07-17T14:02:44.656Z,29.10
2018-07-17T14:05:12.532Z,29.20
2018-07-17T14:07:40.539Z,29.20
2018-07-17T14:10:08.573Z,29.20
2018-07-17T14:12:36.558Z,29.20
2018-07-17T14:15:05.204Z,29.20
2018-07-17T14:17:33.585Z,29.10
2018-07-17T14:20:01.779Z,28.90
2018-07-17T14:22:29.968Z,28.80
2018-07-17T14:24:59.838Z,28.80
2018-07-17T14:27:27.862Z,28.80
2018-07-17T14:29:55.859Z,28.90
2018-07-17T14:32:23.702Z,29.00
2018-07-17T14:34:52.562Z,29.00
2018-07-17T14:37:20.992Z,29.00
2018-07-17T14:39:49.262Z,29.00
2018-07-17T14:42:17.716Z,29.00
2018-07-17T14:44:46.993Z,28.80
2018-07-17T14:47:14.901Z,28.90
2018-07-17T14:49:42.788Z,28.90
2018-07-17T14:54:41.190Z,29.00
2018-07-17T14:57:09.408Z,28.90
2018-07-17T14:59:37.277Z,28.80
2018-07-17T15:02:05.089Z,28.70
2018-07-17T15:04:33.075Z,28.80
2018-07-17T15:07:00.971Z,28.80
2018-07-17T15:09:28.811Z,28.80
2018-07-17T15:11:56.779Z,28.70
2018-07-17T15:14:24.614Z,28.70
2018-07-17T15:16:52.948Z,28.80
2018-07-17T15:19:21.267Z,28.80
2018-07-17T15:21:49.063Z,28.90
2018-07-17T15:24:16.916Z,28.90
2018-07-17T15:26:44.843Z,28.90
2018-07-17T15:29:13.082Z,28.90
2018-07-17T15:31:41.226Z,28.90
2018-07-17T15:34:09.203Z,28.80
2018-07-17T15:36:38.091Z,28.70
2018-07-17T15:39:08.224Z,28.60
2018-07-17T15:41:38.048Z,28.60
2018-07-17T15:44:06.073Z,28.60
2018-07-17T15:46:35.147Z,28.60
2018-07-17T15:49:03.329Z,28.60
2018-07-17T15:51:31.542Z,28.60
2018-07-17T15:53:59.374Z,28.70
2018-07-17T15:56:27.345Z,28.70
2018-07-17T15:58:55.455Z,28.70
2018-07-17T16:01:23.257Z,28.70
2018-07-17T16:03:51.060Z,28.70
2018-07-17T16:06:23.038Z,28.60
2018-07-17T16:08:51.080Z,28.70
2018-07-17T16:11:19.029Z,28.60
2018-07-17T16:13:47.067Z,28.50
2018-07-17T16:16:15.444Z,28.50
2018-07-17T16:18:44.260Z,28.40
2018-07-17T16:21:14.360Z,28.30
2018-07-17T16:23:42.403Z,28.20
2018-07-17T16:26:10.299Z,28.20
2018-07-17T16:28:38.173Z,28.20
2018-07-17T16:31:06.939Z,28.30
2018-07-17T16:33:34.887Z,28.30
2018-07-17T16:36:03.701Z,28.20
2018-07-17T16:38:31.593Z,28.20
2018-07-17T16:41:02.518Z,28.00
2018-07-17T16:43:31.141Z,27.90
2018-07-17T16:45:59.994Z,27.80
2018-07-17T16:48:28.697Z,27.70
2018-07-17T16:50:56.828Z,27.60
2018-07-17T16:53:24.954Z,27.50
2018-07-17T16:55:52.867Z,27.40
2018-07-17T16:58:20.595Z,27.30
2018-07-17T17:00:48.403Z,27.20
2018-07-17T17:03:16.295Z,27.20
2018-07-17T17:05:44.207Z,27.10
2018-07-17T17:08:12.298Z,26.90
2018-07-17T17:10:40.345Z,26.80
2018-07-17T17:13:08.205Z,26.70
2018-07-17T17:15:37.783Z,26.70
2018-07-17T17:18:06.181Z,26.60
2018-07-17T17:20:34.709Z,26.70
2018-07-17T17:23:02.649Z,26.70
2018-07-17T17:25:30.570Z,26.80
2018-07-17T17:27:58.997Z,26.70
2018-07-17T17:30:27.172Z,26.60
2018-07-17T17:32:55.419Z,26.60
2018-07-17T17:35:24.101Z,26.50
2018-07-17T17:37:52.297Z,26.50
2018-07-17T17:40:20.556Z,26.50
2018-07-17T17:42:48.975Z,26.40
2018-07-17T17:45:17.029Z,26.20
2018-07-17T17:47:45.080Z,26.10
2018-07-17T17:50:13.444Z,25.90
2018-07-17T17:52:42.780Z,25.80
2018-07-17T17:55:11.593Z,25.60
2018-07-17T17:57:40.004Z,25.50
2018-07-17T18:00:08.063Z,25.40
2018-07-17T18:02:36.444Z,25.30
2018-07-17T18:05:04.751Z,25.30
2018-07-17T18:07:32.914Z,25.10
2018-07-17T18:10:01.249Z,24.90
2018-07-17T18:12:30.564Z,24.70
2018-07-17T18:14:58.500Z,24.40
2018-07-17T18:17:26.630Z,24.30
2018-07-17T18:19:54.449Z,24.10
2018-07-17T18:22:22.389Z,23.70
2018-07-17T18:24:51.752Z,23.50
2018-07-17T18:27:20.044Z,23.20
2018-07-17T18:29:48.780Z,23.10
2018-07-17T18:32:16.866Z,22.90
2018-07-17T18:34:45.324Z,22.70
2018-07-17T18:37:13.226Z,22.60
2018-07-17T18:39:41.691Z,22.40
2018-07-17T18:42:09.995Z,22.20
2018-07-17T18:44:38.618Z,22.00
2018-07-17T18:47:06.850Z,22.00
2018-07-17T18:49:35.030Z,21.80
2018-07-17T18:52:04.353Z,21.60
2018-07-17T18:54:32.811Z,21.60
2018-07-17T18:57:01.348Z,21.40
2018-07-17T18:59:29.720Z,21.30
2018-07-17T19:01:57.869Z,21.20
2018-07-17T19:04:26.526Z,21.10
2018-07-17T19:06:54.730Z,21.00
2018-07-17T19:09:23.769Z,20.80
2018-07-17T19:11:52.096Z,20.80
2018-07-17T19:14:21.231Z,20.60
2018-07-17T19:16:50.069Z,20.60
2018-07-17T19:19:18.177Z,20.40
2018-07-17T19:21:46.333Z,20.30
2018-07-17T19:24:21.484Z,20.20
2018-07-17T19:26:49.760Z,20.10
2018-07-17T19:29:17.908Z,19.90
2018-07-17T19:31:46.012Z,19.90
2018-07-17T19:34:13.858Z,19.70
2018-07-17T19:36:42.394Z,19.60
2018-07-17T19:39:11.817Z,19.50
2018-07-17T19:41:40.371Z,19.40
2018-07-17T19:44:09.333Z,19.40
2018-07-17T19:46:37.370Z,19.20
2018-07-17T19:51:35.231Z,19.10
2018-07-17T19:54:03.725Z,19.00
2018-07-17T19:56:33.250Z,18.80
2018-07-17T19:59:03.560Z,18.80
2018-07-17T20:04:00.106Z,18.50
2018-07-17T20:06:29.164Z,18.50
2018-07-17T20:08:57.254Z,18.40
2018-07-17T20:11:26.230Z,18.30
2018-07-17T20:13:54.628Z,18.20
2018-07-17T20:16:23.216Z,18.20
2018-07-17T20:18:51.462Z,18.10
2018-07-17T20:21:19.646Z,18.00
2018-07-17T20:23:47.634Z,18.00
2018-07-17T20:26:16.365Z,17.90
2018-07-17T20:28:44.883Z,17.90
2018-07-17T20:31:13.170Z,17.80
2018-07-17T20:33:41.362Z,17.80
2018-07-17T20:36:09.506Z,17.70
2018-07-17T20:38:37.599Z,17.70
2018-07-17T20:41:06.190Z,17.60
2018-07-17T20:43:34.350Z,17.50
2018-07-17T20:46:02.444Z,17.40
2018-07-17T20:53:26.242Z,17.20
2018-07-17T20:58:22.479Z,17.10
2018-07-17T21:00:50.911Z,17.00
2018-07-17T21:03:19.245Z,17.00
2018-07-17T21:05:47.283Z,17.00
2018-07-17T21:08:15.985Z,17.00
2018-07-17T21:10:44.250Z,16.90
2018-07-17T21:13:12.474Z,16.90
2018-07-17T21:15:41.236Z,16.80
2018-07-17T21:20:37.102Z,16.80
2018-07-17T21:23:05.049Z,16.70
2018-07-17T21:25:33.199Z,16.60
2018-07-17T21:28:00.987Z,16.60
2018-07-17T21:30:29.224Z,16.60
2018-07-17T21:32:57.342Z,16.50
2018-07-17T21:35:25.548Z,16.50
2018-07-17T21:37:53.616Z,16.50
2018-07-17T21:40:21.988Z,16.40
2018-07-17T21:42:50.506Z,16.40
2018-07-17T21:45:18.592Z,16.40
2018-07-17T21:47:47.055Z,16.30
2018-07-17T21:50:15.198Z,16.30
2018-07-17T21:52:43.860Z,16.20
2018-07-17T21:55:12.062Z,16.20
2018-07-17T21:57:40.257Z,16.20
2018-07-17T22:00:09.927Z,16.20
2018-07-17T22:02:37.767Z,16.20
2018-07-17T22:05:06.019Z,16.20
2018-07-17T22:07:34.318Z,16.20
2018-07-17T22:10:02.358Z,16.20
2018-07-17T22:12:30.478Z,16.30
2018-07-17T22:14:58.928Z,16.20
2018-07-17T22:17:26.932Z,16.30
2018-07-17T22:19:55.447Z,16.30
2018-07-17T22:22:23.818Z,16.30
2018-07-17T22:24:51.905Z,16.30
2018-07-17T22:27:19.811Z,16.30
2018-07-17T22:29:47.678Z,16.30
2018-07-17T22:32:15.800Z,16.30
2018-07-17T22:34:45.543Z,16.30
2018-07-17T22:37:13.891Z,16.30
2018-07-17T22:39:42.287Z,16.40
2018-07-17T22:42:10.478Z,16.40
2018-07-17T22:44:39.220Z,16.50
2018-07-17T22:47:07.399Z,16.50
2018-07-17T22:49:35.845Z,16.50
2018-07-17T22:52:03.783Z,16.50
2018-07-17T22:57:00.116Z,16.60
2018-07-17T22:59:28.283Z,16.70
2018-07-17T23:01:56.551Z,16.70
2018-07-17T23:04:24.610Z,16.70
2018-07-17T23:06:52.680Z,16.80
2018-07-17T23:09:20.937Z,16.90
2018-07-17T23:11:49.165Z,16.90
2018-07-17T23:14:17.380Z,17.00
2018-07-17T23:16:45.679Z,17.00
2018-07-17T23:19:13.606Z,17.10
2018-07-17T23:21:41.335Z,17.20
2018-07-17T23:24:09.501Z,17.20
2018-07-17T23:26:37.521Z,17.30
2018-07-17T23:29:05.696Z,17.40
2018-07-17T23:31:34.675Z,17.40
2018-07-17T23:34:03.046Z,17.50
2018-07-17T23:36:30.847Z,17.60
2018-07-17T23:38:58.878Z,17.70
2018-07-17T23:41:26.984Z,17.90
2018-07-17T23:43:55.106Z,18.20
2018-07-17T23:48:51.045Z,18.60
2018-07-17T23:51:19.306Z,19.00
2018-07-17T23:53:47.446Z,19.30
2018-07-17T23:56:15.164Z,19.40
2018-07-17T23:58:43.416Z,19.50
